• Join FlightAware (Why Join?)
  • Login
  • US Flag 
06:22AM EDT


 

Airport Tracker/Info


-or-


 

Live Flight TrackerFlight Track Log ✈ EJA929 ✈ 24-Feb-2014 ✈ KTEB - KHOU

Flight Track Log - Related Links

Times and Time Zones

All times are in EST time to prevent confusion due to time zone crossing. See the EJA929 flight status page for this flight to view local times or setup timezone preferences in your user account.

Time Position Orientation Groundspeed Altitude Reporting Facility
EST Latitude Longitude Course Direction KTS MPH feet Rate Location/Type
08:56AM 40.9000 -74.1167 270° West 218 251 4,000  Level New York TRACON
08:58AM 40.8342 -74.2242 231° Southwest 233 268 6,800 1,680 Climbing New York Center
08:59AM 40.7839 -74.3011 229° Southwest 238 274 8,900 2,100 Climbing New York Center
09:00AM 40.7631 -74.3711 249° West 238 274 11,000 1,800 Climbing New York Center
09:01AM 40.7375 -74.4519 247° West 258 297 12,500 2,100 Climbing New York Center
09:02AM 40.7094 -74.5517 250° West 282 325 15,200 2,640 Climbing New York Center
09:03AM 40.6747 -74.6592 247° West 292 336 17,800 2,460 Climbing New York Center
09:04AM 40.6489 -74.7425 248° West 286 329 20,200 2,280 Climbing New York Center
09:05AM 40.6039 -74.8439 240° Southwest 292 336 22,400 2,040 Climbing New York Center
09:06AM 40.5614 -74.9286 237° Southwest 312 359 24,300 2,100 Climbing New York Center
09:07AM 40.5122 -75.0214 235° Southwest 312 359 26,700 2,040 Climbing New York Center
09:08AM 40.4583 -75.1244 236° Southwest 312 359 28,400 1,560 Climbing New York Center
09:09AM 40.4069 -75.2192 235° Southwest 325 374 29,900 1,560 Climbing New York Center
09:10AM 40.3531 -75.3219 235° Southwest 331 381 31,600 1,620 Climbing New York Center
09:11AM 40.3036 -75.4111 234° Southwest 343 395 33,200 1,620 Climbing New York Center
09:12AM 40.2472 -75.5189 236° Southwest 349 402 34,900 1,440 Climbing New York Center
09:13AM 40.1819 -75.6369 234° Southwest 365 420 36,100 1,140 Climbing New York Center
09:14AM 40.1272 -75.7469 237° Southwest 365 420 37,200 960 Climbing New York Center
09:15AM 40.0706 -75.8542 235° Southwest 365 420 38,100 900 Climbing New York Center
09:16AM 40.0058 -75.9578 231° Southwest 375 432 39,000 840 Climbing New York Center
09:17AM 39.9408 -76.0586 230° Southwest 375 432 39,800 660 Climbing New York Center
09:18AM 39.8756 -76.1619 231° Southwest 375 432 40,400 600 Climbing New York Center
09:19AM 39.8103 -76.2678 231° Southwest 375 432 41,100 660 Climbing New York Center
09:20AM 39.7339 -76.3794 228° Southwest 348 400 41,900 600 Climbing Washington Center
09:21AM 39.6750 -76.4786 232° Southwest 348 400 42,500 480 Climbing Washington Center
09:22AM 39.6139 -76.5639 227° Southwest 356 410 42,900 240 Climbing Washington Center
09:23AM 39.5506 -76.6628 230° Southwest 362 417 43,000  Climbing Washington Center
09:24AM 39.4872 -76.7639 231° Southwest 362 417 43,000  Level Washington Center
09:25AM 39.4194 -76.8675 230° Southwest 367 422 43,000  Level Washington Center
09:26AM 39.3514 -76.9711 230° Southwest 377 434 43,000  Level Washington Center
09:27AM 39.2814 -77.0769 230° Southwest 377 434 43,000  Level Washington Center
09:28AM 39.2114 -77.1828 230° Southwest 377 434 43,000  Level Washington Center
09:29AM 39.1433 -77.2883 230° Southwest 382 440 43,000  Level Washington Center
09:30AM 39.0708 -77.3964 229° Southwest 393 452 43,000  Level Washington Center
09:31AM 38.9983 -77.5039 229° Southwest 399 459 43,000  Level Washington Center
09:32AM 38.9256 -77.6142 230° Southwest 404 465 43,000  Level Washington Center
09:33AM 38.8444 -77.7319 229° Southwest 404 465 43,000  Level Washington Center
09:34AM 38.7714 -77.8417 230° Southwest 404 465 43,000  Level Washington Center
09:35AM 38.6964 -77.9511 229° Southwest 409 471 43,000  Level Washington Center
09:36AM 38.6233 -78.0603 229° Southwest 404 465 43,000  Level Washington Center
09:37AM 38.5500 -78.1694 229° Southwest 404 465 43,000  Level Washington Center
09:38AM 38.4769 -78.2756 229° Southwest 404 465 43,000  Level Washington Center
09:39AM 38.4036 -78.3842 229° Southwest 399 459 43,000  Level Washington Center
09:40AM 38.3278 -78.4953 229° Southwest 404 465 43,000  Level Washington Center
09:41AM 38.2586 -78.6008 230° Southwest 404 465 43,000  Level Washington Center
09:42AM 38.1806 -78.7114 228° Southwest 404 465 43,000  Level Washington Center
09:43AM 38.1047 -78.8217 229° Southwest 409 471 43,000  Level Washington Center
09:44AM 38.0289 -78.9292 228° Southwest 414 476 43,000  Level Washington Center
09:45AM 37.9614 -79.0264 229° Southwest 414 476 43,000  Level Washington Center
09:46AM 37.8894 -79.1389 231° Southwest 414 476 43,000  Level Washington Center
09:47AM 37.8294 -79.2569 237° Southwest 414 476 43,000  Level Washington Center
09:48AM 37.7694 -79.3775 238° Southwest 414 476 43,000  Level Washington Center
09:49AM 37.7025 -79.5081 237° Southwest 407 468 43,000  Level Washington Center
09:51AM 37.5767 -79.7608 238° Southwest 409 471 43,000  Level Atlanta Center
09:52AM 37.5161 -79.8767 237° Southwest 409 471 43,000  Level Atlanta Center
09:53AM 37.4556 -79.9975 238° Southwest 404 465 43,000  Level Atlanta Center
09:54AM 37.3889 -80.1264 237° Southwest 404 465 43,000  Level Atlanta Center
09:55AM 37.3278 -80.2442 237° Southwest 404 465 43,000  Level Atlanta Center
09:56AM 37.2689 -80.3592 237° Southwest 404 465 43,000  Level Atlanta Center
09:57AM 37.2097 -80.4739 237° Southwest 404 465 43,000  Level Atlanta Center
09:58AM 37.1564 -80.5806 238° Southwest 404 465 43,000  Level Atlanta Center
09:59AM 37.0931 -80.7006 237° Southwest 404 465 43,000  Level Atlanta Center
10:00AM 37.0464 -80.8219 244° Southwest 399 459 43,000  Level Atlanta Center
10:01AM 37.0014 -80.9461 246° West 394 453 43,000  Level Atlanta Center
10:02AM 36.9547 -81.0828 247° West 389 448 43,000  Level Atlanta Center
10:03AM 36.9097 -81.2039 245° Southwest 389 448 43,000  Level Atlanta Center
10:04AM 36.8667 -81.3275 247° West 389 448 43,000  Level Atlanta Center
10:05AM 36.8214 -81.4508 245° Southwest 389 448 43,000  Level Atlanta Center
10:06AM 36.7800 -81.5742 247° West 389 448 43,000  Level Atlanta Center
10:07AM 36.7344 -81.6972 245° Southwest 384 442 43,000  Level Atlanta Center
10:08AM 36.6911 -81.8228 247° West 384 442 43,000  Level Atlanta Center
10:09AM 36.6431 -81.9456 244° Southwest 384 442 43,000  Level Atlanta Center
10:10AM 36.5972 -82.0683 245° Southwest 389 448 43,000  Level Atlanta Center
10:11AM 36.5428 -82.1861 240° Southwest 395 455 43,000  Level Atlanta Center
10:12AM 36.4778 -82.2986 234° Southwest 409 471 43,000  Level Atlanta Center
10:13AM 36.4144 -82.4108 235° Southwest 409 471 43,000  Level Atlanta Center
10:14AM 36.3492 -82.5231 234° Southwest 409 471 43,000  Level Atlanta Center
10:15AM 36.2839 -82.6375 235° Southwest 409 471 43,000  Level Atlanta Center
10:16AM 36.2225 -82.7389 233° Southwest 409 471 43,000  Level Atlanta Center
10:17AM 36.1569 -82.8533 235° Southwest 409 471 43,000  Level Atlanta Center
10:18AM 36.0911 -82.9672 234° Southwest 409 471 43,000  Level Atlanta Center
10:19AM 36.0253 -83.0786 234° Southwest 409 471 43,000  Level Atlanta Center
10:20AM 35.9594 -83.1922 234° Southwest 409 471 43,000  Level Atlanta Center
10:21AM 35.8892 -83.3186 236° Southwest 409 471 43,000  Level Atlanta Center
10:22AM 35.8211 -83.4317 233° Southwest 409 471 43,000  Level Atlanta Center
10:23AM 35.7547 -83.5447 234° Southwest 409 471 43,000  Level Atlanta Center
10:24AM 35.6883 -83.6578 234° Southwest 409 471 43,000  Level Atlanta Center
10:25AM 35.6219 -83.7681 233° Southwest 409 471 43,000  Level Atlanta Center
10:26AM 35.5533 -83.8781 233° Southwest 409 471 43,000  Level Atlanta Center
10:27AM 35.4867 -83.9928 235° Southwest 409 471 43,000  Level Atlanta Center
10:28AM 35.4219 -84.1025 234° Southwest 409 471 43,000  Level Atlanta Center
10:29AM 35.3531 -84.2144 233° Southwest 409 471 43,000  Level Atlanta Center
10:30AM 35.2881 -84.3211 233° Southwest 409 471 43,000  Level Atlanta Center
10:31AM 35.2211 -84.4353 234° Southwest 404 465 43,000  Level Atlanta Center
10:32AM 35.1539 -84.5469 234° Southwest 404 465 43,000  Level Atlanta Center
10:33AM 35.0844 -84.6556 232° Southwest 404 465 43,000  Level Atlanta Center
10:34AM 35.0172 -84.7717 235° Southwest 409 471 43,000  Level Atlanta Center
10:35AM 34.9475 -84.8825 233° Southwest 415 478 43,000  Level Atlanta Center
10:36AM 34.8778 -84.9958 233° Southwest 415 478 43,000  Level Atlanta Center
10:37AM 34.8061 -85.1089 232° Southwest 420 483 43,000  Level Atlanta Center
10:38AM 34.7383 -85.2217 234° Southwest 420 483 43,000  Level Atlanta Center
10:39AM 34.6703 -85.3344 234° Southwest 420 483 43,000  Level Atlanta Center
10:40AM 34.6067 -85.4344 232° Southwest 420 483 43,000  Level Atlanta Center
10:41AM 34.5364 -85.5467 233° Southwest 420 483 43,000  Level Atlanta Center
10:42AM 34.4639 -85.6614 233° Southwest 425 489 43,000  Level Atlanta Center
10:43AM 34.3936 -85.7708 232° Southwest 425 489 43,000  Level Atlanta Center
10:44AM 34.3147 -85.8922 232° Southwest 425 489 43,000  Level Atlanta Center
10:45AM 34.2439 -86.0064 233° Southwest 425 489 43,000  Level Atlanta Center
10:46AM 34.1711 -86.1178 232° Southwest 430 495 43,000  Level Atlanta Center
10:47AM 34.1003 -86.2339 234° Southwest 430 495 43,000  Level Atlanta Center
10:48AM 34.0272 -86.3447 232° Southwest 430 495 43,000  Level Atlanta Center
10:49AM 33.9542 -86.4606 233° Southwest 430 495 43,000  Level Atlanta Center
10:50AM 33.8808 -86.5736 232° Southwest 430 495 43,000  Level Atlanta Center
10:51AM 33.8097 -86.6839 232° Southwest 430 495 43,000  Level Atlanta Center
10:52AM 33.7342 -86.7989 232° Southwest 430 495 43,000  Level Atlanta Center
10:53AM 33.6625 -86.9139 233° Southwest 430 495 43,000  Level Atlanta Center
10:54AM 33.6136 -87.0394 245° Southwest 424 488 43,000  Level Atlanta Center
10:55AM 33.5667 -87.1700 247° West 424 488 43,000  Level Atlanta Center
10:56AM 33.5217 -87.2956 247° West 424 488 43,000  Level Atlanta Center
10:57AM 33.4939 -87.3756 247° West 422 486 43,000  Level Memphis Center
10:58AM 33.4458 -87.5033 246° West 422 486 43,000  Level Memphis Center
10:59AM 33.3978 -87.6317 246° West 422 486 43,000  Level Memphis Center
11:00AM 33.3397 -87.7858 246° West 422 486 43,000  Level Memphis Center
11:01AM 33.2908 -87.9147 246° West 422 486 43,000  Level Memphis Center
11:02AM 33.2419 -88.0439 246° West 423 487 43,000  Level Memphis Center
11:03AM 33.1919 -88.1728 245° Southwest 424 488 43,000  Level Memphis Center
11:04AM 33.1406 -88.3069 245° Southwest 428 493 43,000  Level Memphis Center
11:05AM 33.0919 -88.4347 246° West 428 493 43,000  Level Memphis Center
11:06AM 33.0428 -88.5636 246° West 428 493 43,000  Level Memphis Center
11:07AM 32.9825 -88.7167 245° Southwest 428 493 43,000  Level Memphis Center
11:08AM 32.9319 -88.8447 245° Southwest 428 493 43,000  Level Memphis Center
11:09AM 32.8822 -88.9719 245° Southwest 428 493 43,000  Level Memphis Center
11:10AM 32.8331 -89.1003 246° West 428 493 43,000  Level Memphis Center
11:12AM 32.7817 -89.2283 245° Southwest 428 493 43,000  Level Memphis Center
11:13AM 32.7317 -89.3558 245° Southwest 428 493 43,000  Level Memphis Center
11:14AM 32.6703 -89.5092 245° Southwest 428 493 43,000  Level Memphis Center
11:15AM 32.6192 -89.6361 244° Southwest 428 493 43,000  Level Memphis Center
11:16AM 32.5683 -89.7644 245° Southwest 428 493 43,000  Level Memphis Center
11:17AM 32.5172 -89.8919 245° Southwest 428 493 43,000  Level Memphis Center
11:18AM 32.4664 -90.0181 244° Southwest 428 493 43,000  Level Memphis Center
11:19AM 32.4131 -90.1453 244° Southwest 428 493 43,000  Level Memphis Center
11:20AM 32.3414 -90.2922 240° Southwest 428 493 43,000  Level Memphis Center
11:21AM 32.2825 -90.4136 240° Southwest 429 494 43,000  Level Memphis Center
11:22AM 32.2253 -90.5367 241° Southwest 428 493 43,000  Level Memphis Center
11:23AM 32.1664 -90.6586 240° Southwest 428 493 43,000  Level Memphis Center
11:24AM 32.1075 -90.7789 240° Southwest 428 493 43,000  Level Memphis Center
11:25AM 32.0375 -90.9267 241° Southwest 430 495 43,000  Level Memphis Center
11:26AM 31.9794 -91.0469 240° Southwest 429 494 43,000  Level Memphis Center
11:27AM 31.9192 -91.1678 240° Southwest 429 494 43,000  Level Memphis Center
11:28AM 31.8592 -91.2886 240° Southwest 429 494 43,000  Level Memphis Center
11:29AM 31.8064 -91.4131 244° Southwest 429 494 43,000  Level Memphis Center
11:30AM 31.7450 -91.5636 244° Southwest 429 494 43,000  Level Memphis Center
11:31AM 31.6942 -91.6889 245° Southwest 429 494 43,000  Level Memphis Center
11:33AM 31.6264 -91.8564 245° Southwest 428 493 43,000  Level Houston Center
11:34AM 31.5744 -91.9833 244° Southwest 431 496 43,000  Level Houston Center
11:35AM 31.5192 -92.1164 244° Southwest 432 497 43,000  Level Houston Center
11:36AM 31.4669 -92.2419 244° Southwest 430 495 43,000  Level Houston Center
11:37AM 31.4050 -92.3933 244° Southwest 430 495 43,000  Level Houston Center
11:38AM 31.3514 -92.5189 243° Southwest 432 497 43,000  Level Houston Center
11:39AM 31.2972 -92.6431 243° Southwest 431 496 43,000  Level Houston Center
11:40AM 31.2475 -92.7725 246° West 433 498 43,000  Level Houston Center
11:41AM 31.1939 -92.8975 243° Southwest 433 498 43,000  Level Houston Center
11:42AM 31.1303 -93.0483 244° Southwest 433 498 43,000  Level Houston Center
11:43AM 31.0761 -93.1742 243° Southwest 434 499 43,000 -900 Level Houston Center
11:44AM 31.0233 -93.2986 244° Southwest 432 497 41,200 -1,980 Descending Houston Center
11:45AM 30.9714 -93.4203 244° Southwest 424 488 38,900 -2,280 Descending Houston Center
11:46AM 30.9178 -93.5464 244° Southwest 434 499 36,600 -2,400 Descending Houston Center
11:47AM 30.8550 -93.6925 243° Southwest 422 486 34,000 -2,400 Descending Houston Center
11:48AM 30.8022 -93.8147 243° Southwest 424 488 31,700 -2,220 Descending Houston Center
11:49AM 30.7467 -93.9414 243° Southwest 439 505 29,400 -2,340 Descending Houston Center
11:50AM 30.7142 -94.0167 243° Southwest 429 494 28,000 -2,400 Descending Houston Center
11:50AM 30.7025 -94.0450 244° Southwest 415 478 27,600 -1,740 Descending Houston Center
11:50AM 30.6947 -94.0611 241° Southwest 423 487 27,200 -2,280 Descending Houston Center
11:51AM 30.6475 -94.1692 243° Southwest 408 470 25,300 -2,160 Descending Houston Center
11:51AM 30.6439 -94.1794 248° West 413 475 25,000 -2,220 Descending Houston Center
11:52AM 30.5981 -94.2828 243° Southwest 412 474 23,100 -2,460 Descending Houston Center
11:52AM 30.5833 -94.3181 244° Southwest 407 468 22,500 -2,100 Descending Houston Center
11:53AM 30.5467 -94.4011 243° Southwest 399 459 21,000 -2,040 Descending Houston Center
11:53AM 30.5350 -94.4292 244° Southwest 396 456 20,400 -1,980 Descending Houston Center
11:54AM 30.5033 -94.4967 241° Southwest 366 421 19,200 -1,620 Descending Houston Center
11:54AM 30.4897 -94.5250 241° Southwest 377 434 18,700 -1,680 Descending Houston Center
11:55AM 30.4475 -94.5911 233° Southwest 355 409 17,500 -2,040 Descending Houston Center
11:55AM 30.4269 -94.6222 233° Southwest 359 413 16,600 -1,980 Descending Houston Center
11:56AM 30.3869 -94.6839 233° Southwest 333 383 15,500 -1,560 Descending Houston Center
11:56AM 30.3731 -94.7089 237° Southwest 337 388 15,000 -1,680 Descending Houston Center
11:57AM 30.3358 -94.7631 231° Southwest 305 351 13,800 -1,860 Descending Houston Center
11:57AM 30.3117 -94.8019 234° Southwest 308 354 13,100 -840 Descending Houston Center
11:58AM 30.2847 -94.8447 234° Southwest 315 362 13,000 -600 Descending Houston Center
11:58AM 30.2592 -94.8836 233° Southwest 313 360 12,500 -2,280 Descending Houston Center
11:59AM 30.2294 -94.9267 231° Southwest 320 368 10,700 -2,340 Descending Houston Center
12:00PM 30.2058 -94.9650 235° Southwest 317 365 10,100 -720 Descending Houston Center
12:00PM 30.1764 -95.0081 232° Southwest 279 321 10,000 -120 Descending Houston Center
12:01PM 30.1578 -95.0400 236° Southwest 299 344 10,000  Level Houston Center
12:01PM 30.1139 -95.0811 219° Southwest 345 397 10,000  Level Houston Center
12:02PM 30.0797 -95.0956 200° South 334 384 10,000  Level Houston Center
12:02PM 30.0269 -95.1183 200° South 331 381 10,000  Level Houston Center
12:03PM 29.9944 -95.1317 200° South 329 379 10,000 -780 Level Houston Center
12:03PM 29.9483 -95.1522 201° Southwest 275 316 9,200 -1,800 Descending Houston Center
12:04PM 29.9069 -95.1683 199° South 283 326 8,200 -960 Descending Houston Center
12:05PM 29.8333 -95.2003 201° Southwest 283 326 7,700 -1,020 Descending Houston Center
12:05PM 29.7989 -95.2164 202° Southwest 278 320 6,800 -1,560 Descending Houston Center
12:06PM 29.7608 -95.2303 198° South 280 322 6,100 -840 Descending Houston Center
12:06PM 29.7228 -95.2353 187° South 268 308 6,000 -120 Descending Houston Center
12:07PM 29.6872 -95.2342 178° South 272 313 6,000  Level Houston Center
12:07PM 29.6475 -95.2372 184° South 264 304 6,000  Level Houston Center
12:08PM 29.6025 -95.2372 180° South 263 303 6,000  Level Houston Center
12:08PM 29.5744 -95.2436 191° South 263 303 6,000  Level Houston Center
12:09PM 29.5439 -95.2692 216° Southwest 239 275 6,000 -240 Level Houston Center
12:09PM 29.5217 -95.2861 214° Southwest 216 249 5,800 -780 Descending Houston Center
12:10PM 29.4917 -95.3106 215° Southwest 231 266 5,200 -1,020 Descending Houston Center
12:10PM 29.4708 -95.3258 213° Southwest 217 250 4,800 -1,560 Descending Houston Center
12:11PM 29.4678 -95.3628 265° West 219 252 3,600 -1,800 Descending Houston Center
12:11PM 29.4869 -95.3864 313° West 214 246 3,000 -600 Descending Houston Center
12:12PM 29.5178 -95.3961 345° North 221 254 3,000  Level Houston Center
12:12PM 29.5417 -95.3892 14° North 211 243 3,000 -900 Level Houston Center
12:13PM 29.5731 -95.3589 40° Northeast 200 230 2,100 -1,200 Descending Houston Center
12:13PM 29.5803 -95.3511 43° Northeast 169 194 1,800 -900 Descending Houston Center
12:14PM 29.6003 -95.3272 46° Northeast 166 191 1,200 -840 Descending Houston Center
12:14PM 29.6047 -95.3217 47° Northeast 122 140 1,000 -720 Descending Houston Center
12:15PM 29.6253 -95.3003 42° Northeast 139 160 500 -720 Descending Houston Center
12:15PM 29.6317 -95.2944 38° Northeast 124 143 300 -300 Descending Houston Center
12:16PM 29.6492 -95.2750 44° Northeast 133 153 200 -180 Descending Houston Center